Terminal Aerodrome Forecast
Issued by NWS

Home | Current Version | Previous Version | Graphics & Text | Print | Product List | Glossary On
Versions: 1 2 3 4 5 6 7 8 9 10 11 12 13 14 15 16 17 18 19 20 21 22 23
000
FTUS43 KBIS 220800 AAA
TAFDIK
TAF AMD
KDIK 220812Z 2208/2306 00000KT 1/2SM FG SCT005
      TEMPO 2209/2212 1SM BR SCT005
     FM221200 10006KT P6SM SCT040
     FM230000 12008KT P6SM SCT060=

USA.gov is the U.S. government's official web portal to all federal, state and local government web resources and services.